Details From EGKB - Biggin Hill
To EHGG - Eelde
Flight Number -
Tags decoded
Created
Modified
Stats Distance 317 nm / 587 km
Max Altitude 0 ft / 0 m
Waypoints 6
Social Downloads 18
Likes 0
Share

Download

Looking for another format? Having issues loading an existing format? Contact us
Advertisement - Login to hide

Notes

Requested: EGKB Q70 KOK L607 GOLEX FERDI N873 GRONY EHGG Unmatched points: Q70 L607 N873

Route

EGKB KOK GOLEX FERDI GRONY EHGG

ID Type Via Altitude (ft/m) Position (lat/lon) Dist (leg/tot) Name
O EGKB APT - 0 / 0 51.32671 / 0.03288 - / 0 nm Biggin Hill
KOK VOR - 0 / 0 51.09472 / 2.65167 99 / 99 nm KOKSY VORTAC
GOLEX FIX - 0 / 0 50.94541 / 3.61596 37 / 137 nm
FERDI FIX - 0 / 0 50.91264 / 3.63696 2 / 139 nm
GRONY FIX - 0 / 0 53.10547 / 6.05497 159 / 298 nm
O EHGG APT - 0 / 0 53.12103 / 6.57707 18 / 317 nm Eelde

Altitude Profile

Advertisement - Login to hide

Weather


0- 5 10 15 20 25 30 35+ Temperature / °C

Clouds and Precipitation
Forecast for 2021-07-29 00:00 UTC. Updated 36 minutes ago

Ground ~20,000 ft ~40,000 ft Winds

EGKB

Details ICAO EGKB (BQH)
Name Biggin Hill
Region United Kingdom
Timezone Europe/London (UTC+1.0)
Stats Elevation 598 ft / 182 m (AMSL)
Location 51.331000° 0.032457°
Runways 1
Magnetic Variation 0.152° E

METAR

EGKB 282050Z 22011KT 9999 SHRA FEW026 14/12 Q1008

Decode

TAF

Not found

Departure Runways

ID Width Length Bearing (true/mag) Surface Threshold Overrun Markings Lighting
03 149 ft / 46 m 5,898 ft / 1,798 m 25.64° / 25.49° ASPHALT 801 ft / 244 m 0 ft / 0 m VISUAL EDGE THRESHOLD REIL-OMNI
21 149 ft / 46 m 5,898 ft / 1,798 m 205.65° / 205.49° ASPHALT 0 ft / 0 m 0 ft / 0 m UK-PREC-APP EDGE THRESHOLD CALVERT REIL-OMNI

EHGG

Details ICAO EHGG (GRQ)
Name Groningen Eelde Airport
Region Netherlands
Timezone Europe/Amsterdam (UTC+2.0)
Stats Elevation 17 ft / 5 m (AMSL)
Location 53.118000° 6.575580°
Runways 1
Magnetic Variation 2.208° E

METAR

EHGG 282155Z AUTO 20010KT 170V240 9999 SCT036 16/13 Q1007

Decode

TAF

TAF AMD EHGG 282055Z 2820/2924 19012KT 9999 SCT040 PROB30 TEMPO 2821/2901 22015G25KT 6000 SHRA BKN018 FEW020CB PROB40 TEMPO 2901/2906 24015G25KT 6000 SHRA BKN018 SCT020CB BECMG 2906/2909 24016G26KT BECMG 2916/2919 22010KT

Decode

Destination Runways

ID Width Length Bearing (true/mag) Surface Threshold Overrun Markings Lighting
05 148 ft / 45 m 8,185 ft / 2,495 m 51.78° / 49.58° ASPHALT 0 ft / 0 m 98 ft / 30 m PREC-APP CENTERLINE EDGE THRESHOLD SALS
23 148 ft / 45 m 8,185 ft / 2,495 m 231.81° / 229.60° ASPHALT 0 ft / 0 m 98 ft / 30 m PREC-APP CENTERLINE EDGE THRESHOLD ALSF-I

Approach Navaids

Runway Type Ident Frequency Range Bearing (true/mag) Slope Elevation
23 LOC-ILS GRO 109.90 MHz 18 nm / 33 km 231.80° / 229.59 ° - 17 ft / 5 m (AMSL)
23 GS GRO 109.90 MHz 10 nm / 19 km 231.80° / 229.59 ° 3.00° 17 ft / 5 m (AMSL)

Popular Alternatives